Time;durP1;ratioP1;P1;durP2;ratioP2;P2;SDS_P1;SDS_P2;PMS_P1;PMS_P2;Temp;Humidity;BMP_temperature;BMP_pressure;BME280_temperature;BME280_humidity;BME280_pressure;Samples;Min_cycle;Max_cycle;Signal;HPM_P1;HPM_P2
2022/09/21 00:02:25;;;;;;;6.57;2.58;;;9.90;99.90;;;;;;5034724;28;20410;-64
2022/09/21 00:04:51;;;;;;;6.25;3.35;;;10.00;99.90;;;;;;5012172;28;20416;-66
2022/09/21 00:07:16;;;;;;;7.07;3.60;;;10.00;99.90;;;;;;5030100;28;20045;-63
2022/09/21 00:09:42;;;;;;;4.63;2.70;;;9.90;99.90;;;;;;5026405;28;20033;-64
2022/09/21 00:12:08;;;;;;;7.70;3.08;;;9.80;99.90;;;;;;5032216;28;20517;-65
2022/09/21 00:14:34;;;;;;;4.68;3.50;;;9.80;99.90;;;;;;5034658;28;20134;-62
2022/09/21 00:17:00;;;;;;;7.15;3.90;;;9.70;99.90;;;;;;5014721;28;20587;-65
2022/09/21 00:19:26;;;;;;;4.78;2.92;;;9.70;99.90;;;;;;5029288;28;21317;-63
2022/09/21 00:21:56;;;;;;;5.15;3.60;;;9.60;99.90;;;;;;5007199;28;20486;-63
2022/09/21 00:24:22;;;;;;;4.88;2.78;;;9.50;99.90;;;;;;5012245;28;20033;-63
2022/09/21 00:26:47;;;;;;;5.38;3.40;;;9.40;99.90;;;;;;5028247;22;20045;-62
2022/09/21 00:29:13;;;;;;;9.43;2.92;;;9.40;99.90;;;;;;4995356;28;20559;-62
2022/09/21 00:31:39;;;;;;;4.70;3.00;;;9.40;99.90;;;;;;4990319;28;20045;-62
2022/09/21 00:34:08;;;;;;;4.72;2.60;;;9.40;99.90;;;;;;4988840;28;20069;-62
2022/09/21 00:36:33;;;;;;;5.53;3.05;;;9.40;99.90;;;;;;4988667;28;20033;-62
2022/09/21 00:39:01;;;;;;;5.03;2.75;;;9.40;99.90;;;;;;4988589;28;20068;-61
2022/09/21 00:41:29;;;;;;;4.65;3.30;;;9.40;99.90;;;;;;4993514;28;20489;-61
2022/09/21 00:44:29;;;;;;;6.32;3.20;;;9.30;99.90;;;;;;4989128;28;20123;-62
2022/09/21 00:46:59;;;;;;;8.38;3.03;;;9.30;99.90;;;;;;4968042;28;20508;-63
2022/09/21 00:49:27;;;;;;;5.80;2.40;;;9.30;99.90;;;;;;4984083;28;20124;-64
2022/09/21 00:51:53;;;;;;;5.00;2.97;;;9.20;99.90;;;;;;4982923;28;20089;-61
2022/09/21 00:54:25;;;;;;;5.25;2.72;;;9.20;99.90;;;;;;4964478;28;20520;-62
2022/09/21 00:56:50;;;;;;;6.95;3.50;;;9.20;99.90;;;;;;4982901;28;20054;-61
2022/09/21 00:59:17;;;;;;;7.82;3.42;;;9.20;99.90;;;;;;4980019;28;20117;-62
2022/09/21 01:01:43;;;;;;;5.93;2.90;;;9.20;99.90;;;;;;4982461;28;20830;-63
2022/09/21 01:04:12;;;;;;;4.53;2.60;;;9.10;99.90;;;;;;4979179;28;20046;-63
2022/09/21 01:06:39;;;;;;;4.35;2.60;;;9.10;99.90;;;;;;4984233;28;20049;-62
2022/09/21 01:09:05;;;;;;;3.70;2.03;;;9.10;99.90;;;;;;4988289;28;20094;-62
2022/09/21 01:11:43;;;;;;;3.42;2.33;;;9.10;99.90;;;;;;4968356;28;20104;-61
2022/09/21 01:14:43;;;;;;;4.40;2.60;;;9.10;99.90;;;;;;4988322;28;21159;-62
2022/09/21 01:17:41;;;;;;;6.13;2.65;;;9.10;99.90;;;;;;4989339;28;20046;-62
2022/09/21 01:20:25;;;;;;;6.03;3.38;;;9.00;99.90;;;;;;4986570;28;20140;-62
2022/09/21 01:23:25;;;;;;;6.18;3.13;;;8.90;99.90;;;;;;4983713;28;20643;-62
2022/09/21 01:26:19;;;;;;;4.18;3.28;;;8.90;99.90;;;;;;4979681;28;20050;-63
2022/09/21 01:29:05;;;;;;;5.78;2.70;;;8.90;99.90;;;;;;4978796;28;20053;-62
2022/09/21 01:31:43;;;;;;;4.57;2.75;;;8.90;99.90;;;;;;4988260;28;20041;-63
2022/09/21 01:34:23;;;;;;;5.45;2.60;;;8.90;99.90;;;;;;4983776;28;20057;-62
2022/09/21 01:36:50;;;;;;;5.68;2.33;;;8.90;99.90;;;;;;4967394;28;20046;-62
2022/09/21 01:39:19;;;;;;;2.83;1.60;;;9.00;99.90;;;;;;4995746;28;20490;-63
2022/09/21 01:41:47;;;;;;;3.65;2.03;;;9.00;99.90;;;;;;4988737;28;20053;-61
2022/09/21 01:44:22;;;;;;;3.42;1.77;;;9.10;99.90;;;;;;4988891;28;20350;-62
2022/09/21 01:46:48;;;;;;;4.68;2.20;;;9.30;99.90;;;;;;4988856;28;20066;-62
2022/09/21 01:49:21;;;;;;;5.43;2.30;;;9.10;99.90;;;;;;4995295;28;20105;-62
2022/09/21 01:52:01;;;;;;;3.55;1.90;;;9.10;99.90;;;;;;4997168;28;20092;-63
2022/09/21 01:54:37;;;;;;;6.15;2.90;;;9.10;99.90;;;;;;4995159;28;20034;-62
2022/09/21 01:57:10;;;;;;;6.60;2.50;;;9.00;99.90;;;;;;4989861;28;20070;-62
2022/09/21 01:59:45;;;;;;;4.18;2.13;;;8.90;99.90;;;;;;4996410;28;20034;-63
2022/09/21 02:02:17;;;;;;;8.07;2.80;;;8.80;99.90;;;;;;4995925;28;20065;-63
2022/09/21 02:04:43;;;;;;;5.22;2.47;;;8.70;99.90;;;;;;4994465;28;20477;-62
2022/09/21 02:07:09;;;;;;;4.20;2.38;;;8.70;99.90;;;;;;4984224;28;20145;-62
2022/09/21 02:09:36;;;;;;;6.70;2.72;;;8.80;99.90;;;;;;4984105;28;20053;-63
2022/09/21 02:12:03;;;;;;;4.55;2.15;;;8.80;99.90;;;;;;4987993;28;20045;-62
2022/09/21 02:14:32;;;;;;;3.75;2.60;;;8.80;99.90;;;;;;4989678;28;20049;-62
2022/09/21 02:17:16;;;;;;;5.72;2.47;;;9.40;99.90;;;;;;4979673;28;20050;-63
2022/09/21 02:19:56;;;;;;;7.95;2.92;;;8.80;99.90;;;;;;4985895;28;20050;-62
2022/09/21 02:22:32;;;;;;;2.75;1.95;;;8.80;99.90;;;;;;4979515;28;20030;-62
2022/09/21 02:25:14;;;;;;;4.97;2.40;;;8.80;99.90;;;;;;4977239;28;20183;-62
2022/09/21 02:28:18;;;;;;;4.47;2.42;;;8.90;99.90;;;;;;4984227;28;20135;-63
2022/09/21 02:30:57;;;;;;;5.88;1.73;;;8.90;99.90;;;;;;4987012;28;20053;-62
2022/09/21 02:33:36;;;;;;;6.43;2.40;;;8.90;99.90;;;;;;4981731;28;20077;-63
2022/09/21 02:36:10;;;;;;;3.42;2.00;;;8.80;99.90;;;;;;4980154;28;20045;-63
2022/09/21 02:38:45;;;;;;;4.90;2.28;;;8.90;99.90;;;;;;4979731;28;20363;-62
2022/09/21 02:41:33;;;;;;;3.92;1.98;;;8.80;99.90;;;;;;4977815;28;20049;-62
2022/09/21 02:44:01;;;;;;;2.88;1.75;;;8.80;99.90;;;;;;4984006;28;20065;-62
2022/09/21 02:46:34;;;;;;;4.50;1.70;;;8.90;99.90;;;;;;4987390;28;20046;-63
2022/09/21 02:49:07;;;;;;;3.95;1.60;;;9.00;99.90;;;;;;4988718;28;20034;-61
2022/09/21 02:51:40;;;;;;;4.22;1.70;;;9.00;99.90;;;;;;4998991;28;20038;-62
2022/09/21 02:54:08;;;;;;;2.90;1.70;;;8.90;99.90;;;;;;4978600;28;20049;-63
2022/09/21 02:56:35;;;;;;;4.32;2.20;;;8.80;99.90;;;;;;4986816;28;20375;-62
2022/09/21 02:59:04;;;;;;;4.00;1.92;;;8.80;99.90;;;;;;4990038;28;20050;-62
2022/09/21 03:01:31;;;;;;;3.28;1.70;;;8.70;99.90;;;;;;4983900;28;20473;-62
2022/09/21 03:03:57;;;;;;;5.07;2.10;;;8.70;99.90;;;;;;4985026;28;20053;-62
2022/09/21 03:06:23;;;;;;;4.22;2.03;;;8.60;99.90;;;;;;4988134;28;20117;-62
2022/09/21 03:08:49;;;;;;;4.15;1.63;;;8.60;99.90;;;;;;4992467;28;20093;-62
2022/09/21 03:11:19;;;;;;;3.25;1.70;;;8.60;99.90;;;;;;4988549;28;20356;-62
2022/09/21 03:13:45;;;;;;;4.43;1.70;;;8.60;99.90;;;;;;4996156;28;20425;-61
2022/09/21 03:16:11;;;;;;;2.67;1.98;;;8.70;99.90;;;;;;4995063;28;22525;-62
2022/09/21 03:18:39;;;;;;;3.20;1.45;;;8.70;99.90;;;;;;4992825;28;20161;-63
2022/09/21 03:21:05;;;;;;;1.55;0.98;;;8.80;99.90;;;;;;4992481;28;20054;-61
2022/09/21 03:23:31;;;;;;;4.60;1.60;;;8.70;99.90;;;;;;4983313;28;20034;-63
2022/09/21 03:25:56;;;;;;;2.55;1.58;;;8.70;99.90;;;;;;4990841;28;20030;-59
2022/09/21 03:28:22;;;;;;;4.55;1.70;;;8.70;99.90;;;;;;4979287;28;20902;-63
2022/09/21 03:30:49;;;;;;;4.63;2.10;;;8.60;99.90;;;;;;4996831;28;20042;-62
2022/09/21 03:33:16;;;;;;;2.97;1.42;;;8.60;99.90;;;;;;4979841;28;20045;-62
2022/09/21 03:35:42;;;;;;;4.53;2.10;;;8.60;99.90;;;;;;4990154;28;20037;-62
2022/09/21 03:38:08;;;;;;;7.97;2.40;;;8.40;99.90;;;;;;4993523;28;20570;-62
2022/09/21 03:40:34;;;;;;;2.92;1.75;;;8.40;99.90;;;;;;4996769;28;20127;-62
2022/09/21 03:42:59;;;;;;;3.50;1.88;;;8.30;99.90;;;;;;4989092;28;20112;-63
2022/09/21 03:45:26;;;;;;;4.40;2.00;;;8.30;99.90;;;;;;4977236;28;20046;-63
2022/09/21 03:48:01;;;;;;;2.78;2.00;;;8.30;99.90;;;;;;4991333;28;20046;-62
2022/09/21 03:50:27;;;;;;;4.82;3.30;;;8.20;99.90;;;;;;5001941;28;20136;-62
2022/09/21 03:52:54;;;;;;;7.65;3.13;;;8.20;99.90;;;;;;4989208;28;20081;-63
2022/09/21 03:55:20;;;;;;;7.78;3.35;;;8.10;99.90;;;;;;4997818;28;20168;-62
2022/09/21 03:57:46;;;;;;;7.65;2.60;;;8.10;99.90;;;;;;5000128;28;20052;-62
2022/09/21 04:00:12;;;;;;;5.65;2.47;;;8.20;99.90;;;;;;4997328;28;20047;-63
2022/09/21 04:02:40;;;;;;;6.78;2.92;;;8.10;99.90;;;;;;4992994;28;20042;-62
2022/09/21 04:05:08;;;;;;;7.57;2.58;;;8.10;99.90;;;;;;4997730;28;20044;-62
2022/09/21 04:07:34;;;;;;;3.63;2.30;;;8.00;99.90;;;;;;4993888;28;20082;-61
2022/09/21 04:10:06;;;;;;;5.55;2.55;;;8.00;99.90;;;;;;4983690;28;20076;-62
2022/09/21 04:12:33;;;;;;;4.15;2.17;;;8.00;99.90;;;;;;4994178;28;20206;-61
2022/09/21 04:15:00;;;;;;;6.20;2.50;;;8.00;99.90;;;;;;4984151;28;20530;-61
2022/09/21 04:17:26;;;;;;;5.40;2.40;;;8.00;99.90;;;;;;4996009;28;20053;-62
2022/09/21 04:19:52;;;;;;;6.45;2.60;;;8.00;99.90;;;;;;4990012;28;20074;-61
2022/09/21 04:22:18;;;;;;;3.67;2.10;;;8.00;99.90;;;;;;4995972;28;20489;-61
2022/09/21 04:24:43;;;;;;;4.63;1.98;;;8.00;99.90;;;;;;4990612;28;20049;-62
2022/09/21 04:27:11;;;;;;;4.05;2.03;;;8.00;99.90;;;;;;4992820;28;20468;-62
2022/09/21 04:29:37;;;;;;;4.38;1.90;;;8.10;99.90;;;;;;4964596;28;20392;-62
2022/09/21 04:32:03;;;;;;;6.00;2.70;;;8.20;99.90;;;;;;4990791;28;20042;-61
2022/09/21 04:34:30;;;;;;;3.15;1.67;;;8.40;99.90;;;;;;4985434;28;20471;-63
2022/09/21 04:36:57;;;;;;;3.20;2.35;;;8.40;99.90;;;;;;4966410;28;20108;-62
2022/09/21 04:39:23;;;;;;;4.40;1.80;;;8.40;99.90;;;;;;4982832;28;20046;-63
2022/09/21 04:41:49;;;;;;;5.88;2.38;;;8.40;99.90;;;;;;4986494;28;20587;-63
2022/09/21 04:44:15;;;;;;;3.75;2.28;;;8.30;99.90;;;;;;4982182;28;20053;-62
2022/09/21 04:46:41;;;;;;;3.67;2.10;;;8.20;99.90;;;;;;5005449;28;20041;-62
2022/09/21 04:49:07;;;;;;;4.25;1.90;;;8.30;99.90;;;;;;4982792;28;20524;-62
2022/09/21 04:51:33;;;;;;;6.07;2.40;;;8.20;99.90;;;;;;4985204;28;20030;-62
2022/09/21 04:53:59;;;;;;;7.45;2.35;;;8.30;99.90;;;;;;4982289;28;20057;-63
2022/09/21 04:56:25;;;;;;;4.75;2.50;;;8.20;99.90;;;;;;4964653;28;20515;-62
2022/09/21 04:58:51;;;;;;;9.13;2.42;;;8.20;99.90;;;;;;4983025;28;20034;-61
2022/09/21 05:01:16;;;;;;;3.33;2.40;;;8.10;99.90;;;;;;4986896;28;20038;-60
2022/09/21 05:03:42;;;;;;;3.38;2.00;;;8.00;99.90;;;;;;4990069;28;20037;-61
2022/09/21 05:06:10;;;;;;;3.58;2.63;;;8.00;99.90;;;;;;4984461;28;20038;-61
2022/09/21 05:11:20;;;;;;;;;;;7.90;99.90;;;;;;4994280;28;20081;-61
2022/09/21 05:13:46;;;;;;;2.85;2.00;;;7.80;99.90;;;;;;4987703;28;20423;-61
2022/09/21 05:16:13;;;;;;;5.40;2.50;;;7.80;99.90;;;;;;4988221;28;20038;-62
2022/09/21 05:18:39;;;;;;;4.53;2.67;;;7.80;99.90;;;;;;4982769;28;20040;-60
2022/09/21 05:21:06;;;;;;;6.72;3.00;;;8.10;99.90;;;;;;4983052;28;20046;-60
2022/09/21 05:23:35;;;;;;;10.85;4.03;;;7.70;99.90;;;;;;4977468;28;20121;-61
2022/09/21 05:26:01;;;;;;;6.00;2.80;;;7.70;99.90;;;;;;4969187;28;22440;-61
2022/09/21 05:28:27;;;;;;;3.60;2.53;;;7.70;99.90;;;;;;4989376;28;20787;-61
2022/09/21 05:30:56;;;;;;;3.53;2.35;;;7.70;99.90;;;;;;4991434;28;20107;-60
2022/09/21 05:33:24;;;;;;;7.00;3.25;;;7.70;99.90;;;;;;4983006;28;20050;-61
2022/09/21 05:36:10;;;;;;;5.13;2.20;;;7.70;99.90;;;;;;4995632;28;20060;-62
2022/09/21 05:38:36;;;;;;;4.25;2.70;;;7.60;99.90;;;;;;4987653;28;20215;-60
2022/09/21 05:41:02;;;;;;;4.22;2.50;;;7.60;99.90;;;;;;4987750;28;20052;-59
2022/09/21 05:43:29;;;;;;;7.28;2.40;;;7.60;99.90;;;;;;4996283;28;20075;-61
2022/09/21 05:46:04;;;;;;;10.98;3.30;;;7.60;99.90;;;;;;4995957;28;20688;-61
2022/09/21 05:48:41;;;;;;;17.25;4.03;;;7.60;99.90;;;;;;5002226;28;20100;-61
2022/09/21 05:51:24;;;;;;;31.75;5.88;;;7.60;99.90;;;;;;4997033;28;20519;-61
2022/09/21 05:54:08;;;;;;;28.33;4.70;;;7.70;99.90;;;;;;4983609;28;20048;-60
2022/09/21 05:56:57;;;;;;;17.63;4.00;;;7.70;99.90;;;;;;4988084;28;20940;-61
2022/09/21 05:59:51;;;;;;;10.90;2.90;;;7.80;99.90;;;;;;4997168;28;20294;-62
2022/09/21 06:02:41;;;;;;;7.13;2.05;;;7.80;99.90;;;;;;4988415;28;20077;-62
2022/09/21 06:05:12;;;;;;;15.13;3.15;;;7.90;99.90;;;;;;4994770;28;20076;-61
2022/09/21 06:07:37;;;;;;;11.88;3.33;;;8.10;99.90;;;;;;4998268;28;20037;-61
2022/09/21 06:10:04;;;;;;;8.73;2.33;;;8.20;99.90;;;;;;4997881;28;20065;-60
2022/09/21 06:12:29;;;;;;;9.38;2.33;;;8.20;99.90;;;;;;4983403;28;20860;-62
2022/09/21 06:14:55;;;;;;;4.72;1.75;;;8.20;99.90;;;;;;4982690;28;20049;-61
2022/09/21 06:17:21;;;;;;;5.95;1.90;;;8.30;99.90;;;;;;4971179;28;20049;-61
2022/09/21 06:19:47;;;;;;;5.00;1.58;;;8.40;99.90;;;;;;4987212;28;20045;-61
2022/09/21 06:22:13;;;;;;;5.93;1.42;;;8.40;99.90;;;;;;4986996;28;20034;-60
2022/09/21 06:24:38;;;;;;;3.75;1.50;;;8.50;99.90;;;;;;4999001;28;20485;-61
2022/09/21 06:27:04;;;;;;;2.85;1.13;;;8.40;99.90;;;;;;5055774;22;20073;-80
2022/09/21 06:29:30;;;;;;;2.08;1.00;;;8.50;99.90;;;;;;4997693;28;20104;-80
2022/09/21 06:31:56;;;;;;;3.75;1.38;;;8.80;99.90;;;;;;4989242;28;20042;-79
2022/09/21 06:34:22;;;;;;;3.42;1.50;;;8.70;99.90;;;;;;5003478;28;20482;-80
2022/09/21 06:36:47;;;;;;;2.55;1.08;;;8.80;99.90;;;;;;5001464;28;20045;-80
2022/09/21 06:39:13;;;;;;;3.90;1.40;;;8.90;99.90;;;;;;5002575;28;20044;-78
2022/09/21 06:41:39;;;;;;;5.07;1.10;;;9.10;99.90;;;;;;5003714;28;20452;-79
2022/09/21 06:44:04;;;;;;;2.85;1.35;;;9.10;99.90;;;;;;5024082;28;20041;-82
2022/09/21 06:46:30;;;;;;;2.00;1.20;;;9.20;99.90;;;;;;4983561;28;20041;-79
2022/09/21 06:48:56;;;;;;;2.30;1.20;;;9.30;99.90;;;;;;4991589;28;20040;-82
2022/09/21 06:51:22;;;;;;;4.13;1.30;;;9.40;99.90;;;;;;5010753;28;20044;-82
2022/09/21 06:53:52;;;;;;;5.18;1.80;;;9.50;99.90;;;;;;4995640;28;20057;-80
2022/09/21 06:56:18;;;;;;;2.30;1.30;;;9.50;99.90;;;;;;5001972;28;20038;-80
2022/09/21 06:58:46;;;;;;;4.13;1.65;;;9.70;99.90;;;;;;4976267;28;20574;-80
2022/09/21 07:01:13;;;;;;;5.68;2.00;;;9.80;99.90;;;;;;5015885;28;20048;-81
2022/09/21 07:03:41;;;;;;;4.97;2.50;;;10.00;99.90;;;;;;4988395;28;20053;-81
2022/09/21 07:06:10;;;;;;;6.65;2.00;;;10.10;99.90;;;;;;5016027;28;20046;-81
2022/09/21 07:08:38;;;;;;;7.85;2.08;;;10.30;99.90;;;;;;5006691;28;20532;-81
2022/09/21 07:11:03;;;;;;;6.43;2.03;;;10.50;99.90;;;;;;4998517;28;20121;-81
2022/09/21 07:13:29;;;;;;;5.20;2.20;;;10.70;99.90;;;;;;4980785;28;22319;-80
2022/09/21 07:15:55;;;;;;;6.00;2.08;;;10.90;99.90;;;;;;4975011;28;20538;-81
2022/09/21 07:18:21;;;;;;;5.18;1.83;;;11.00;99.90;;;;;;5006470;28;20049;-82
2022/09/21 07:20:48;;;;;;;7.05;2.75;;;11.20;99.90;;;;;;5002444;28;20528;-81
2022/09/21 07:23:16;;;;;;;4.18;1.60;;;11.40;99.90;;;;;;4997376;28;20450;-81
2022/09/21 07:25:44;;;;;;;5.68;1.70;;;11.60;99.90;;;;;;5002633;28;20077;-81
2022/09/21 07:28:10;;;;;;;4.10;2.22;;;11.80;99.90;;;;;;5007320;28;20053;-82
2022/09/21 07:30:38;;;;;;;6.25;2.38;;;11.80;99.90;;;;;;4989341;28;20041;-81
2022/09/21 07:33:04;;;;;;;4.50;1.90;;;11.90;99.90;;;;;;5019173;28;20209;-82
2022/09/21 07:35:30;;;;;;;4.93;1.58;;;12.00;99.90;;;;;;4979437;28;20556;-83
2022/09/21 07:38:01;;;;;;;14.85;2.63;;;12.20;99.90;;;;;;5002184;28;20049;-84
2022/09/21 07:40:27;;;;;;;5.65;2.38;;;12.30;99.90;;;;;;4995952;28;20571;-81
2022/09/21 07:42:59;;;;;;;5.03;1.58;;;12.40;99.90;;;;;;4999509;28;20121;-82
2022/09/21 07:45:25;;;;;;;6.78;1.73;;;12.60;99.90;;;;;;5029104;28;20048;-83
2022/09/21 07:47:53;;;;;;;5.68;1.80;;;12.70;99.90;;;;;;5007405;28;20063;-83
2022/09/21 07:50:22;;;;;;;4.72;1.50;;;12.80;99.90;;;;;;5026375;28;20402;-82
2022/09/21 07:52:48;;;;;;;6.50;2.05;;;12.80;99.90;;;;;;5003476;28;20080;-83
2022/09/21 07:55:14;;;;;;;4.82;1.50;;;13.00;99.90;;;;;;4991211;28;20072;-83
2022/09/21 08:00:27;;;;;;;6.00;1.88;;;13.20;99.90;;;;;;5021692;28;20056;-81
2022/09/21 08:02:53;;;;;;;5.25;1.88;;;13.40;99.90;;;;;;5026247;28;20389;-82
2022/09/21 08:05:19;;;;;;;4.05;1.52;;;13.50;99.90;;;;;;5014377;28;20053;-81
2022/09/21 08:07:44;;;;;;;7.07;2.00;;;13.60;99.90;;;;;;4965100;28;20091;-82
2022/09/21 08:10:10;;;;;;;2.90;1.35;;;13.70;99.90;;;;;;4985126;28;20104;-82
2022/09/21 08:12:36;;;;;;;4.45;1.33;;;13.80;99.90;;;;;;5004640;28;20034;-83
2022/09/21 08:15:02;;;;;;;5.68;1.48;;;13.90;99.90;;;;;;4995489;28;21470;-83
2022/09/21 08:17:28;;;;;;;9.60;2.05;;;14.10;99.90;;;;;;4995147;28;20046;-81
2022/09/21 08:19:54;;;;;;;6.60;1.33;;;14.20;99.90;;;;;;4963445;28;20128;-79
2022/09/21 08:22:24;;;;;;;7.40;2.13;;;14.30;99.90;;;;;;5020887;28;20144;-79
2022/09/21 08:24:51;;;;;;;5.22;1.13;;;14.40;99.90;;;;;;4962905;28;20056;-79
2022/09/21 08:27:18;;;;;;;5.13;1.42;;;14.50;99.90;;;;;;5000260;28;20517;-83
2022/09/21 08:29:45;;;;;;;6.40;1.20;;;14.70;99.90;;;;;;4972708;28;20116;-82
2022/09/21 08:32:13;;;;;;;4.50;1.25;;;14.60;99.90;;;;;;4956119;28;20052;-81
2022/09/21 08:34:39;;;;;;;7.57;1.35;;;14.70;99.90;;;;;;5000462;28;20056;-80
2022/09/21 08:37:11;;;;;;;8.20;1.52;;;14.80;99.90;;;;;;5007553;28;20056;-82
2022/09/21 08:39:36;;;;;;;5.50;1.27;;;14.90;99.90;;;;;;5000072;28;20052;-80
2022/09/21 08:42:27;;;;;;;10.30;1.75;;;15.00;99.90;;;;;;4996964;28;20041;-83
2022/09/21 08:45:02;;;;;;;6.00;1.50;;;15.20;99.90;;;;;;4984506;28;20124;-83
2022/09/21 08:47:56;;;;;;;5.13;1.10;;;15.40;99.90;;;;;;5010067;28;20065;-82
2022/09/21 08:50:32;;;;;;;4.20;1.25;;;15.50;99.90;;;;;;5013632;28;20038;-83
2022/09/21 08:53:06;;;;;;;8.85;1.00;;;15.50;99.90;;;;;;5018267;28;20034;-82
2022/09/21 08:55:31;;;;;;;7.78;1.10;;;15.50;99.90;;;;;;5017422;28;20046;-83
2022/09/21 08:57:59;;;;;;;8.30;1.48;;;15.40;99.90;;;;;;4999201;28;20139;-82
2022/09/21 09:00:26;;;;;;;6.63;1.33;;;15.50;99.90;;;;;;4984715;28;20046;-81
2022/09/21 09:03:11;;;;;;;4.57;0.77;;;15.40;98.90;;;;;;4995444;28;20130;-80
2022/09/21 09:06:12;;;;;;;6.00;1.05;;;15.60;99.90;;;;;;4995638;28;20606;-82
2022/09/21 09:09:11;;;;;;;4.82;1.20;;;15.80;99.90;;;;;;4972072;28;20048;-82
2022/09/21 09:11:42;;;;;;;4.35;0.80;;;15.80;99.50;;;;;;5016592;28;20038;-81
2022/09/21 09:14:20;;;;;;;5.57;1.30;;;16.00;99.90;;;;;;5031996;28;20072;-82
2022/09/21 09:17:22;;;;;;;3.75;0.98;;;16.20;99.90;;;;;;5010057;28;20061;-82
2022/09/21 09:19:51;;;;;;;5.40;0.98;;;16.40;99.90;;;;;;5000388;28;20077;-82
2022/09/21 09:22:23;;;;;;;7.03;0.98;;;16.50;99.90;;;;;;4987984;28;20424;-82
2022/09/21 09:24:51;;;;;;;4.32;1.10;;;16.70;99.90;;;;;;4990930;28;20065;-81
2022/09/21 09:27:38;;;;;;;5.10;0.90;;;16.80;99.90;;;;;;4984285;28;20033;-82
2022/09/21 09:30:27;;;;;;;5.25;1.00;;;17.00;99.90;;;;;;4997485;28;21307;-81
2022/09/21 09:33:28;;;;;;;6.90;1.73;;;17.10;99.50;;;;;;4997039;28;20121;-82
2022/09/21 09:36:02;;;;;;;2.72;0.80;;;16.90;97.60;;;;;;4975935;28;20104;-81
2022/09/21 09:38:56;;;;;;;3.15;0.90;;;16.60;97.00;;;;;;5029616;28;20045;-81
2022/09/21 09:41:28;;;;;;;5.38;1.02;;;16.40;98.00;;;;;;5020004;28;21350;-79
2022/09/21 09:44:23;;;;;;;8.00;1.20;;;16.50;98.80;;;;;;5023681;28;20033;-82
2022/09/21 09:47:06;;;;;;;5.63;1.55;;;16.50;97.90;;;;;;5002303;28;20053;-81
2022/09/21 09:49:38;;;;;;;5.30;1.15;;;16.50;98.30;;;;;;5015230;28;20033;-81
2022/09/21 09:52:07;;;;;;;3.80;1.00;;;16.50;97.60;;;;;;5003128;28;20077;-78
2022/09/21 09:54:34;;;;;;;4.88;1.20;;;16.60;96.40;;;;;;5014058;28;20539;-82
2022/09/21 09:57:04;;;;;;;5.18;0.93;;;16.80;97.10;;;;;;4998195;28;20502;-82
2022/09/21 09:59:53;;;;;;;4.60;0.90;;;16.70;96.40;;;;;;4993425;28;20045;-79
2022/09/21 10:02:20;;;;;;;6.20;1.42;;;16.50;95.90;;;;;;4986516;28;20042;-80
2022/09/21 10:05:08;;;;;;;5.57;1.00;;;16.60;96.40;;;;;;4995195;28;20037;-81
2022/09/21 10:07:39;;;;;;;6.97;1.27;;;16.80;96.80;;;;;;4981718;28;20067;-82
2022/09/21 10:10:20;;;;;;;3.13;0.75;;;16.80;96.00;;;;;;4991819;28;20097;-81
2022/09/21 10:12:47;;;;;;;5.85;1.35;;;16.90;95.90;;;;;;4982713;28;20033;-83
2022/09/21 10:15:14;;;;;;;4.50;1.02;;;16.60;95.00;;;;;;4987545;28;20454;-81
2022/09/21 10:17:41;;;;;;;3.53;0.85;;;16.80;96.10;;;;;;4983681;28;20038;-81
2022/09/21 10:20:18;;;;;;;6.15;1.15;;;16.90;96.00;;;;;;5007928;28;20056;-82
2022/09/21 10:22:51;;;;;;;9.55;1.20;;;17.10;95.80;;;;;;4994022;28;20049;-82
2022/09/21 10:25:19;;;;;;;3.22;1.00;;;17.20;93.80;;;;;;4999031;28;20045;-80
2022/09/21 10:27:48;;;;;;;6.32;1.13;;;17.30;94.80;;;;;;5005489;28;20602;-81
2022/09/21 10:30:33;;;;;;;6.38;1.05;;;17.50;95.40;;;;;;5008612;28;20041;-80
2022/09/21 10:32:59;;;;;;;6.28;1.30;;;17.70;95.10;;;;;;5017270;28;20041;-81
2022/09/21 10:35:25;;;;;;;4.38;1.23;;;17.60;94.60;;;;;;5001960;28;20041;-80
2022/09/21 10:38:19;;;;;;;5.28;1.20;;;17.40;95.10;;;;;;4985679;28;20699;-82
2022/09/21 10:40:46;;;;;;;3.45;0.95;;;17.20;93.70;;;;;;5005049;28;20320;-82
2022/09/21 10:43:24;;;;;;;5.13;1.60;;;16.90;94.80;;;;;;4998615;28;20145;-81
2022/09/21 10:45:56;;;;;;;4.63;1.00;;;16.80;95.20;;;;;;5000568;28;20053;-79
2022/09/21 10:48:24;;;;;;;5.40;0.85;;;16.80;95.20;;;;;;5003636;28;20406;-80
2022/09/21 10:50:55;;;;;;;2.78;0.90;;;16.80;95.20;;;;;;5008387;28;20041;-83
2022/09/21 10:53:29;;;;;;;6.20;0.88;;;17.00;95.30;;;;;;5011095;28;20072;-81
2022/09/21 10:55:55;;;;;;;6.07;0.90;;;17.10;95.40;;;;;;4990844;28;20068;-80
2022/09/21 10:58:21;;;;;;;6.50;1.10;;;17.20;95.30;;;;;;5010020;28;20046;-80
2022/09/21 11:00:50;;;;;;;2.78;1.00;;;17.30;95.10;;;;;;4985480;28;20069;-82
2022/09/21 11:03:41;;;;;;;5.72;0.98;;;17.20;94.70;;;;;;4997777;28;20033;-82
2022/09/21 11:06:17;;;;;;;4.22;1.10;;;17.10;94.50;;;;;;4982777;28;20341;-81
2022/09/21 11:09:05;;;;;;;5.13;0.90;;;17.10;94.70;;;;;;4984160;28;20045;-81
2022/09/21 11:11:38;;;;;;;3.67;0.90;;;17.10;94.80;;;;;;4996763;28;20052;-82
2022/09/21 11:14:16;;;;;;;6.37;1.20;;;17.20;95.10;;;;;;5001083;28;20041;-81
2022/09/21 11:16:56;;;;;;;2.85;0.60;;;17.20;95.50;;;;;;5022870;28;20364;-82
2022/09/21 11:19:40;;;;;;;5.30;1.10;;;17.20;95.50;;;;;;5005654;28;20179;-80
2022/09/21 11:22:34;;;;;;;4.05;0.80;;;17.40;95.60;;;;;;5019475;28;20046;-81
2022/09/21 11:25:29;;;;;;;4.50;1.15;;;17.80;95.50;;;;;;4977622;28;20576;-81
2022/09/21 11:28:12;;;;;;;4.13;0.90;;;18.00;94.90;;;;;;5020847;28;20052;-79
2022/09/21 11:31:16;;;;;;;6.30;1.60;;;17.90;94.30;;;;;;5006876;28;20505;-81
2022/09/21 11:33:57;;;;;;;4.88;1.25;;;18.20;94.60;;;;;;4985962;28;20588;-79
2022/09/21 11:36:41;;;;;;;2.25;0.95;;;18.50;94.40;;;;;;4996228;28;20046;-80
2022/09/21 11:39:26;;;;;;;4.25;1.00;;;18.90;94.10;;;;;;5034599;28;20049;-80
2022/09/21 11:41:59;;;;;;;5.95;1.55;;;19.00;93.50;;;;;;5017479;28;20041;-79
2022/09/21 11:44:54;;;;;;;6.93;1.38;;;19.30;93.00;;;;;;5028130;28;20072;-79
2022/09/21 11:47:38;;;;;;;6.13;1.00;;;19.20;91.60;;;;;;4991303;28;20104;-81
2022/09/21 11:50:42;;;;;;;3.63;0.90;;;19.30;92.50;;;;;;5001100;28;20088;-79
2022/09/21 11:53:16;;;;;;;3.17;0.77;;;19.60;92.30;;;;;;5009758;28;20045;-79
2022/09/21 11:56:16;;;;;;;4.05;0.88;;;19.70;92.10;;;;;;5015251;28;20048;-82
2022/09/21 11:58:41;;;;;;;2.67;0.80;;;19.70;92.00;;;;;;5003524;28;20075;-82
2022/09/21 12:01:23;;;;;;;3.38;0.90;;;20.00;91.80;;;;;;5007338;28;20473;-80
2022/09/21 12:04:24;;;;;;;4.65;1.05;;;20.10;91.20;;;;;;5030770;28;20038;-79
2022/09/21 12:07:17;;;;;;;7.03;1.50;;;20.30;91.30;;;;;;5003190;28;20056;-82
2022/09/21 12:10:07;;;;;;;4.65;0.95;;;20.40;89.80;;;;;;5007586;28;20131;-81
2022/09/21 12:12:39;;;;;;;3.22;0.80;;;20.10;87.70;;;;;;5017769;28;20042;-81
2022/09/21 12:15:23;;;;;;;5.85;1.45;;;20.30;90.50;;;;;;5003083;28;20048;-82
2022/09/21 12:18:05;;;;;;;2.50;0.95;;;20.50;88.50;;;;;;5018606;28;20033;-81
2022/09/21 12:20:49;;;;;;;7.00;1.08;;;20.60;86.20;;;;;;5020583;28;20037;-81
2022/09/21 12:23:25;;;;;;;2.22;0.60;;;20.70;86.30;;;;;;4995297;28;20087;-81
2022/09/21 12:25:56;;;;;;;2.67;0.80;;;20.90;85.50;;;;;;5022840;28;20050;-82
2022/09/21 12:28:30;;;;;;;5.30;0.90;;;21.00;85.30;;;;;;4990684;28;20034;-77
2022/09/21 12:31:04;;;;;;;3.60;1.10;;;21.00;85.90;;;;;;5004694;28;20048;-76
2022/09/21 12:33:29;;;;;;;2.92;1.08;;;21.00;83.20;;;;;;5019362;28;20041;-76
2022/09/21 12:36:09;;;;;;;4.43;0.77;;;21.00;84.10;;;;;;5001244;28;20041;-77
2022/09/21 12:38:43;;;;;;;3.55;0.90;;;21.10;80.70;;;;;;5004754;28;22530;-77
2022/09/21 12:41:17;;;;;;;4.20;1.30;;;21.30;82.40;;;;;;5022127;28;20417;-78
2022/09/21 12:43:49;;;;;;;3.20;1.02;;;21.50;82.60;;;;;;5010909;28;20104;-77
2022/09/21 12:46:26;;;;;;;4.20;1.00;;;21.70;83.50;;;;;;5013314;28;20066;-77
2022/09/21 12:48:52;;;;;;;4.35;1.10;;;21.90;83.20;;;;;;4998101;28;20041;-76
2022/09/21 12:51:31;;;;;;;2.70;1.00;;;22.00;82.60;;;;;;4982026;28;20073;-77
2022/09/21 12:54:20;;;;;;;5.53;0.80;;;21.90;80.10;;;;;;5003932;28;20037;-77
2022/09/21 12:57:08;;;;;;;3.65;0.90;;;21.90;79.50;;;;;;5016951;28;20057;-77
2022/09/21 12:59:54;;;;;;;3.78;0.98;;;21.70;77.60;;;;;;5021629;28;20075;-77
2022/09/21 13:02:32;;;;;;;2.40;0.82;;;21.70;77.40;;;;;;4991962;28;20045;-77
2022/09/21 13:05:10;;;;;;;4.32;0.80;;;21.90;80.00;;;;;;5020403;28;20087;-77
2022/09/21 13:07:50;;;;;;;5.22;1.13;;;21.90;76.90;;;;;;5021520;28;20041;-77
2022/09/21 13:10:38;;;;;;;4.20;1.35;;;22.00;79.40;;;;;;5018146;28;20055;-78
2022/09/21 13:13:07;;;;;;;3.35;0.90;;;21.90;77.10;;;;;;5006600;28;20034;-79
2022/09/21 13:15:42;;;;;;;4.97;1.70;;;21.70;76.00;;;;;;4989189;28;20386;-78
2022/09/21 13:18:33;;;;;;;5.50;1.77;;;21.40;76.90;;;;;;5006614;28;20529;-77
2022/09/21 13:21:15;;;;;;;2.97;0.90;;;21.40;74.40;;;;;;4995508;28;20520;-77
2022/09/21 13:23:42;;;;;;;3.40;0.90;;;21.50;78.10;;;;;;4991640;28;20034;-77
2022/09/21 13:26:12;;;;;;;3.10;1.00;;;21.70;78.90;;;;;;4993014;28;20053;-77
2022/09/21 13:28:59;;;;;;;5.05;1.17;;;21.80;78.40;;;;;;5009291;28;20037;-78